Time,TemperatureF,DewpointF,PressureIn,WindDirection,WindDirectionDegrees,WindSpeedMPH,WindSpeedGustMPH,Humidity,HourlyPrecipIn,Conditions,Clouds,dailyrainin,SoftwareType,DateUTC
2015-03-03 00:03:00,28.1,-3.2,30.27,NNW,329,0.0,0.0,25,0.00,,,0.00,VWS V15.00,2015-03-03 05:03:00,
2015-03-03 00:08:00,28.3,-3.0,30.27,NNW,335,0.0,0.0,25,0.00,,,0.00,VWS V15.00,2015-03-03 05:08:00,
2015-03-03 00:13:00,28.5,-2.8,30.27,NW,323,0.0,4.0,25,0.00,,,0.00,VWS V15.00,2015-03-03 05:13:00,
2015-03-03 00:18:00,28.5,-2.8,30.27,NNW,342,3.1,3.1,25,0.00,,,0.00,VWS V15.00,2015-03-03 05:18:00,
2015-03-03 00:23:00,28.5,-2.8,30.27,NNW,335,4.0,4.0,25,0.00,,,0.00,VWS V15.00,2015-03-03 05:23:00,
2015-03-03 00:28:00,28.5,-2.8,30.27,ENE,63,0.0,0.0,25,0.00,,,0.00,VWS V15.00,2015-03-03 05:28:00,
2015-03-03 00:33:00,28.5,-2.8,30.27,NW,325,0.0,0.0,25,0.00,,,0.00,VWS V15.00,2015-03-03 05:33:00,
2015-03-03 00:38:00,28.5,-2.8,30.27,NNW,329,0.0,0.0,25,0.00,,,0.00,VWS V15.00,2015-03-03 05:38:00,
2015-03-03 00:43:00,28.3,-3.0,30.27,North,350,6.3,6.3,25,0.00,,,0.00,VWS V15.00,2015-03-03 05:43:00,
2015-03-03 00:48:00,28.3,-3.0,30.27,NNW,336,5.4,5.4,25,0.00,,,0.00,VWS V15.00,2015-03-03 05:48:00,
2015-03-03 00:53:00,28.1,-3.2,30.27,NNW,327,0.0,2.7,25,0.00,,,0.00,VWS V15.00,2015-03-03 05:53:00,
2015-03-03 00:58:00,28.0,-3.3,30.30,NE,43,0.0,0.0,25,0.00,,,0.00,VWS V15.00,2015-03-03 05:58:00,
2015-03-03 01:03:00,27.8,-3.5,30.30,NNW,328,4.9,4.9,25,0.00,,,0.00,VWS V15.00,2015-03-03 06:03:00,
2015-03-03 01:08:00,27.8,-3.5,30.30,North,1,3.1,5.4,25,0.00,,,0.00,VWS V15.00,2015-03-03 06:08:00,
2015-03-03 01:13:00,27.8,-3.5,30.30,NNW,340,3.6,3.6,25,0.00,,,0.00,VWS V15.00,2015-03-03 06:13:00,
2015-03-03 01:18:00,27.6,-3.6,30.27,NE,43,7.2,7.2,25,0.00,,,0.00,VWS V15.00,2015-03-03 06:18:00,
2015-03-03 01:23:00,27.4,-3.8,30.27,NE,38,3.1,3.1,25,0.00,,,0.00,VWS V15.00,2015-03-03 06:23:00,
2015-03-03 01:28:00,27.4,-3.8,30.27,NNW,335,6.3,6.3,25,0.00,,,0.00,VWS V15.00,2015-03-03 06:28:00,
2015-03-03 01:33:00,27.4,-3.8,30.30,NNW,343,5.8,5.8,25,0.00,,,0.00,VWS V15.00,2015-03-03 06:33:00,
2015-03-03 01:38:00,27.2,-3.9,30.30,NW,321,4.0,4.0,25,0.00,,,0.00,VWS V15.00,2015-03-03 06:38:00,
2015-03-03 01:43:00,27.2,-3.9,30.30,NNW,344,3.6,3.6,25,0.00,,,0.00,VWS V15.00,2015-03-03 06:43:00,
2015-03-03 01:48:00,27.1,-4.1,30.30,NNW,343,5.4,5.4,25,0.00,,,0.00,VWS V15.00,2015-03-03 06:48:00,
2015-03-03 01:53:00,26.7,-4.4,30.30,NW,326,5.4,5.4,25,0.00,,,0.00,VWS V15.00,2015-03-03 06:53:00,
2015-03-03 01:58:00,26.7,-4.4,30.30,NW,323,3.6,3.6,25,0.00,,,0.00,VWS V15.00,2015-03-03 06:58:00,
2015-03-03 02:04:00,26.5,-4.5,30.30,NW,317,5.4,5.4,25,0.00,,,0.00,VWS V15.00,2015-03-03 07:04:00,
2015-03-03 02:09:00,26.3,-4.7,30.30,North,358,0.0,4.5,25,0.00,,,0.00,VWS V15.00,2015-03-03 07:09:00,
2015-03-03 02:14:00,26.3,-4.7,30.30,North,5,0.0,0.0,25,0.00,,,0.00,VWS V15.00,2015-03-03 07:14:00,
2015-03-03 02:19:00,26.3,-4.7,30.30,NNE,16,0.0,3.1,25,0.00,,,0.00,VWS V15.00,2015-03-03 07:19:00,
2015-03-03 02:24:00,26.2,-4.8,30.30,NNE,20,3.6,3.6,25,0.00,,,0.00,VWS V15.00,2015-03-03 07:24:00,
2015-03-03 02:29:00,26.2,-4.8,30.30,NE,36,0.0,2.7,25,0.00,,,0.00,VWS V15.00,2015-03-03 07:29:00,
2015-03-03 02:34:00,26.0,-5.0,30.30,NNW,336,8.1,8.1,25,0.00,,,0.00,VWS V15.00,2015-03-03 07:34:00,
2015-03-03 02:39:00,26.2,-4.8,30.30,NNW,331,8.1,8.1,25,0.00,,,0.00,VWS V15.00,2015-03-03 07:39:00,
2015-03-03 02:44:00,26.0,-5.0,30.30,NW,321,0.0,0.0,25,0.00,,,0.00,VWS V15.00,2015-03-03 07:44:00,
2015-03-03 02:49:00,25.8,-4.3,30.30,NNW,333,5.4,5.4,26,0.00,,,0.00,VWS V15.00,2015-03-03 07:49:00,
2015-03-03 02:54:00,25.8,-4.3,30.30,NNW,342,3.1,3.1,26,0.00,,,0.00,VWS V15.00,2015-03-03 07:54:00,
2015-03-03 02:59:00,25.6,-4.5,30.27,NNW,331,3.6,3.6,26,0.00,,,0.00,VWS V15.00,2015-03-03 07:59:00,
2015-03-03 03:04:00,25.4,-4.7,30.27,NW,320,0.0,0.0,26,0.00,,,0.00,VWS V15.00,2015-03-03 08:04:00,
2015-03-03 03:09:00,25.3,-4.8,30.27,NNW,341,0.0,0.0,26,0.00,,,0.00,VWS V15.00,2015-03-03 08:09:00,
2015-03-03 03:14:00,25.3,-4.8,30.27,NW,324,2.7,2.7,26,0.00,,,0.00,VWS V15.00,2015-03-03 08:14:00,
2015-03-03 03:19:00,25.3,-4.8,30.30,NW,325,0.0,0.0,26,0.00,,,0.00,VWS V15.00,2015-03-03 08:19:00,
2015-03-03 03:24:00,25.1,-5.0,30.30,NW,325,0.0,0.0,26,0.00,,,0.00,VWS V15.00,2015-03-03 08:24:00,
2015-03-03 03:29:00,24.7,-5.3,30.30,NW,325,0.0,0.0,26,0.00,,,0.00,VWS V15.00,2015-03-03 08:29:00,
2015-03-03 03:34:00,24.5,-5.4,30.30,NW,325,0.0,0.0,26,0.00,,,0.00,VWS V15.00,2015-03-03 08:34:00,
2015-03-03 03:39:00,24.5,-5.4,30.30,NW,325,0.0,0.0,26,0.00,,,0.00,VWS V15.00,2015-03-03 08:39:00,
2015-03-03 03:44:00,24.4,-5.6,30.30,NW,325,0.0,0.0,26,0.00,,,0.00,VWS V15.00,2015-03-03 08:44:00,
2015-03-03 03:49:00,24.2,-5.7,30.30,NW,325,0.0,0.0,26,0.00,,,0.00,VWS V15.00,2015-03-03 08:49:00,
2015-03-03 03:54:00,24.0,-5.9,30.30,NW,325,0.0,0.0,26,0.00,,,0.00,VWS V15.00,2015-03-03 08:54:00,
2015-03-03 03:59:00,23.8,-3.8,30.30,NNW,327,3.6,3.6,29,0.00,,,0.00,VWS V15.00,2015-03-03 08:59:00,
2015-03-03 04:04:00,23.8,-3.8,30.30,North,354,0.0,0.0,29,0.00,,,0.00,VWS V15.00,2015-03-03 09:04:00,
2015-03-03 04:10:00,23.8,-3.8,30.30,North,354,0.0,0.0,29,0.00,,,0.00,VWS V15.00,2015-03-03 09:10:00,
2015-03-03 04:15:00,23.6,-4.0,30.30,NNW,337,2.7,2.7,29,0.00,,,0.00,VWS V15.00,2015-03-03 09:15:00,
2015-03-03 04:20:00,23.5,-4.1,30.30,NNW,337,0.0,0.0,29,0.00,,,0.00,VWS V15.00,2015-03-03 09:20:00,
2015-03-03 04:25:00,23.5,-4.1,30.30,NNW,337,0.0,0.0,29,0.00,,,0.00,VWS V15.00,2015-03-03 09:25:00,
2015-03-03 04:30:00,23.3,-4.3,30.30,NNW,337,0.0,0.0,29,0.00,,,0.00,VWS V15.00,2015-03-03 09:30:00,
2015-03-03 04:35:00,23.3,-4.3,30.30,NNW,337,0.0,0.0,29,0.00,,,0.00,VWS V15.00,2015-03-03 09:35:00,
2015-03-03 04:40:00,23.1,-4.4,30.30,NNW,335,0.0,0.0,29,0.00,,,0.00,VWS V15.00,2015-03-03 09:40:00,
2015-03-03 04:45:00,22.9,-4.6,30.30,NNW,335,0.0,0.0,29,0.00,,,0.00,VWS V15.00,2015-03-03 09:45:00,
2015-03-03 04:50:00,22.9,-4.6,30.30,NNW,335,0.0,0.0,29,0.00,,,0.00,VWS V15.00,2015-03-03 09:50:00,
2015-03-03 04:55:00,22.4,-3.7,30.30,NNW,335,0.0,0.0,31,0.00,,,0.00,VWS V15.00,2015-03-03 09:55:00,
2015-03-03 05:00:00,22.2,-3.8,30.33,NNW,335,0.0,0.0,31,0.00,,,0.00,VWS V15.00,2015-03-03 10:00:00,
2015-03-03 05:05:00,22.2,-3.8,30.33,NNW,335,0.0,0.0,31,0.00,,,0.00,VWS V15.00,2015-03-03 10:05:00,
2015-03-03 05:10:00,21.8,-2.2,30.33,NNW,335,0.0,0.0,34,0.00,,,0.00,VWS V15.00,2015-03-03 10:10:00,
2015-03-03 05:15:00,21.8,-2.2,30.30,NNW,335,0.0,0.0,34,0.00,,,0.00,VWS V15.00,2015-03-03 10:15:00,
2015-03-03 05:20:00,21.8,-2.2,30.30,NNW,335,0.0,0.0,34,0.00,,,0.00,VWS V15.00,2015-03-03 10:20:00,
2015-03-03 05:25:00,21.5,-1.3,30.30,NNW,335,0.0,0.0,36,0.00,,,0.00,VWS V15.00,2015-03-03 10:25:00,
2015-03-03 05:30:00,21.3,-1.5,30.33,NNW,335,0.0,0.0,36,0.00,,,0.00,VWS V15.00,2015-03-03 10:30:00,
2015-03-03 05:35:00,21.1,-1.1,30.33,NNW,335,0.0,0.0,37,0.00,,,0.00,VWS V15.00,2015-03-03 10:35:00,
2015-03-03 05:40:00,21.1,-1.1,30.33,NNW,335,0.0,0.0,37,0.00,,,0.00,VWS V15.00,2015-03-03 10:40:00,
2015-03-03 05:45:00,20.9,-1.2,30.33,NNW,335,0.0,0.0,37,0.00,,,0.00,VWS V15.00,2015-03-03 10:45:00,
2015-03-03 05:50:00,20.6,-1.5,30.33,NNW,335,0.0,0.0,37,0.00,,,0.00,VWS V15.00,2015-03-03 10:50:00,
2015-03-03 05:55:00,20.2,-1.3,30.33,NNW,335,0.0,0.0,38,0.00,,,0.00,VWS V15.00,2015-03-03 10:55:00,
2015-03-03 06:00:00,20.2,-1.3,30.33,NNW,335,0.0,0.0,38,0.00,,,0.00,VWS V15.00,2015-03-03 11:00:00,
2015-03-03 06:05:00,19.7,-1.8,30.33,NNW,335,0.0,0.0,38,0.00,,,0.00,VWS V15.00,2015-03-03 11:05:00,
2015-03-03 06:10:00,19.7,-1.2,30.33,NNW,335,0.0,0.0,39,0.00,,,0.00,VWS V15.00,2015-03-03 11:10:00,
2015-03-03 06:15:00,19.5,-1.4,30.33,NNW,335,0.0,0.0,39,0.00,,,0.00,VWS V15.00,2015-03-03 11:15:00,
2015-03-03 06:21:00,19.7,-1.2,30.33,NNW,335,0.0,0.0,39,0.00,,,0.00,VWS V15.00,2015-03-03 11:21:00,
2015-03-03 06:26:00,19.7,-1.2,30.33,NNW,335,0.0,0.0,39,0.00,,,0.00,VWS V15.00,2015-03-03 11:26:00,
2015-03-03 06:31:00,19.7,-0.7,30.33,NNW,335,0.0,0.0,40,0.00,,,0.00,VWS V15.00,2015-03-03 11:31:00,
2015-03-03 06:36:00,20.0,0.1,30.33,NNW,335,0.0,0.0,41,0.00,,,0.00,VWS V15.00,2015-03-03 11:36:00,
2015-03-03 06:41:00,20.0,0.1,30.33,NNW,335,0.0,0.0,41,0.00,,,0.00,VWS V15.00,2015-03-03 11:41:00,
2015-03-03 06:46:00,20.4,0.5,30.33,NNW,335,0.0,0.0,41,0.00,,,0.00,VWS V15.00,2015-03-03 11:46:00,
2015-03-03 06:51:00,20.8,0.8,30.33,NNW,335,0.0,0.0,41,0.00,,,0.00,VWS V15.00,2015-03-03 11:51:00,
2015-03-03 06:56:00,21.3,1.3,30.33,NNW,335,0.0,0.0,41,0.00,,,0.00,VWS V15.00,2015-03-03 11:56:00,
2015-03-03 07:01:00,21.7,1.6,30.33,NNW,335,0.0,0.0,41,0.00,,,0.00,VWS V15.00,2015-03-03 12:01:00,
2015-03-03 07:06:00,22.0,1.9,30.33,NNW,335,0.0,0.0,41,0.00,,,0.00,VWS V15.00,2015-03-03 12:06:00,
2015-03-03 07:11:00,22.2,1.6,30.33,NNW,335,0.0,0.0,40,0.00,,,0.00,VWS V15.00,2015-03-03 12:11:00,
2015-03-03 07:16:00,22.6,1.9,30.33,NNW,335,0.0,0.0,40,0.00,,,0.00,VWS V15.00,2015-03-03 12:16:00,
2015-03-03 07:21:00,22.7,1.5,30.33,NNW,335,0.0,0.0,39,0.00,,,0.00,VWS V15.00,2015-03-03 12:21:00,
2015-03-03 07:26:00,22.9,1.7,30.33,NNW,335,0.0,0.0,39,0.00,,,0.00,VWS V15.00,2015-03-03 12:26:00,
2015-03-03 07:31:00,23.3,1.4,30.33,NNW,335,0.0,0.0,38,0.00,,,0.00,VWS V15.00,2015-03-03 12:31:00,
2015-03-03 07:36:00,23.6,1.8,30.33,NNW,335,2.7,3.6,38,0.00,,,0.00,VWS V15.00,2015-03-03 12:36:00,
2015-03-03 07:41:00,23.8,1.4,30.33,NNW,335,0.0,0.0,37,0.00,,,0.00,VWS V15.00,2015-03-03 12:41:00,
2015-03-03 07:46:00,24.4,1.8,30.33,NNE,28,3.1,3.1,37,0.00,,,0.00,VWS V15.00,2015-03-03 12:46:00,
2015-03-03 07:51:00,24.4,1.8,30.33,NNE,28,0.0,0.0,37,0.00,,,0.00,VWS V15.00,2015-03-03 12:51:00,
2015-03-03 07:56:00,25.1,1.9,30.33,NNW,343,0.0,0.0,36,0.00,,,0.00,VWS V15.00,2015-03-03 12:56:00,
2015-03-03 08:01:00,25.4,2.2,30.36,North,349,4.0,4.0,36,0.00,,,0.00,VWS V15.00,2015-03-03 13:01:00,
2015-03-03 08:06:00,25.4,2.2,30.36,NNW,330,5.4,5.4,36,0.00,,,0.00,VWS V15.00,2015-03-03 13:06:00,
2015-03-03 08:11:00,25.8,0.7,30.36,NNW,342,0.0,0.0,33,0.00,,,0.00,VWS V15.00,2015-03-03 13:11:00,
2015-03-03 08:16:00,25.8,0.7,30.36,North,354,3.1,3.6,33,0.00,,,0.00,VWS V15.00,2015-03-03 13:16:00,
2015-03-03 08:22:00,26.2,1.0,30.36,North,358,0.0,0.0,33,0.00,,,0.00,VWS V15.00,2015-03-03 13:22:00,
2015-03-03 08:27:00,26.3,-0.9,30.36,NW,320,0.0,0.0,30,0.00,,,0.00,VWS V15.00,2015-03-03 13:27:00,
2015-03-03 08:32:00,26.5,-0.7,30.36,NNW,339,0.0,0.0,30,0.00,,,0.00,VWS V15.00,2015-03-03 13:32:00,
2015-03-03 08:37:00,26.5,-0.7,30.36,NW,326,3.6,3.6,30,0.00,,,0.00,VWS V15.00,2015-03-03 13:37:00,
2015-03-03 08:42:00,26.3,-0.9,30.36,NW,326,0.0,0.0,30,0.00,,,0.00,VWS V15.00,2015-03-03 13:42:00,
2015-03-03 08:47:00,26.5,-0.7,30.33,NE,51,4.0,4.0,30,0.00,,,0.00,VWS V15.00,2015-03-03 13:47:00,
2015-03-03 08:52:00,26.7,-0.6,30.33,NNE,29,0.0,0.0,30,0.00,,,0.00,VWS V15.00,2015-03-03 13:52:00,
2015-03-03 08:57:00,27.4,0.1,30.33,NNE,31,3.1,3.1,30,0.00,,,0.00,VWS V15.00,2015-03-03 13:57:00,
2015-03-03 09:02:00,27.6,0.2,30.33,ENE,66,3.6,3.6,30,0.00,,,0.00,VWS V15.00,2015-03-03 14:02:00,
2015-03-03 09:07:00,28.0,-1.7,30.33,East,82,3.6,3.6,27,0.00,,,0.00,VWS V15.00,2015-03-03 14:07:00,
2015-03-03 09:12:00,28.1,-1.5,30.33,ENE,66,3.1,3.1,27,0.00,,,0.00,VWS V15.00,2015-03-03 14:12:00,
2015-03-03 09:17:00,28.5,-1.2,30.30,ENE,76,2.7,2.7,27,0.00,,,0.00,VWS V15.00,2015-03-03 14:17:00,
2015-03-03 09:22:00,28.9,-0.9,30.30,NNE,32,0.0,3.1,27,0.00,,,0.00,VWS V15.00,2015-03-03 14:22:00,
2015-03-03 09:27:00,29.2,-0.6,30.30,ENE,65,3.1,3.1,27,0.00,,,0.00,VWS V15.00,2015-03-03 14:27:00,
2015-03-03 09:32:00,29.2,-0.6,30.33,ENE,66,3.6,3.6,27,0.00,,,0.00,VWS V15.00,2015-03-03 14:32:00,
2015-03-03 09:37:00,29.4,-0.4,30.33,East,83,0.0,0.0,27,0.00,,,0.00,VWS V15.00,2015-03-03 14:37:00,
2015-03-03 09:42:00,29.6,-0.3,30.33,ESE,107,2.7,2.7,27,0.00,,,0.00,VWS V15.00,2015-03-03 14:42:00,
2015-03-03 09:47:00,31.0,1.0,30.33,ESE,107,0.0,0.0,27,0.00,,,0.00,VWS V15.00,2015-03-03 14:47:00,
2015-03-03 09:52:00,31.7,1.6,30.33,ESE,107,0.0,0.0,27,0.00,,,0.00,VWS V15.00,2015-03-03 14:52:00,
2015-03-03 09:57:00,32.6,2.4,30.33,NNE,24,0.0,0.0,27,0.00,,,0.00,VWS V15.00,2015-03-03 14:57:00,
2015-03-03 10:02:00,33.0,2.7,30.33,South,183,5.4,5.4,27,0.00,,,0.00,VWS V15.00,2015-03-03 15:02:00,
2015-03-03 10:08:00,32.8,2.5,30.33,SW,214,2.2,2.2,27,0.00,,,0.00,VWS V15.00,2015-03-03 15:08:00,
2015-03-03 10:13:00,33.0,2.7,30.33,South,178,3.6,3.6,27,0.00,,,0.00,VWS V15.00,2015-03-03 15:13:00,
2015-03-03 10:18:00,32.6,2.4,30.33,SSE,154,7.6,7.6,27,0.00,,,0.00,VWS V15.00,2015-03-03 15:18:00,
2015-03-03 10:23:00,32.3,2.1,30.33,SE,145,0.0,0.0,27,0.00,,,0.00,VWS V15.00,2015-03-03 15:23:00,
2015-03-03 10:28:00,32.6,2.4,30.33,South,182,0.0,2.7,27,0.00,,,0.00,VWS V15.00,2015-03-03 15:28:00,
2015-03-03 10:33:00,33.0,2.7,30.30,South,183,4.9,4.9,27,0.00,,,0.00,VWS V15.00,2015-03-03 15:33:00,
2015-03-03 10:38:00,32.8,2.5,30.30,SSE,166,3.1,3.1,27,0.00,,,0.00,VWS V15.00,2015-03-03 15:38:00,
2015-03-03 10:43:00,33.2,2.8,30.30,SW,219,3.1,3.1,27,0.00,,,0.00,VWS V15.00,2015-03-03 15:43:00,
2015-03-03 10:48:00,33.2,2.8,30.30,South,174,2.7,2.7,27,0.00,,,0.00,VWS V15.00,2015-03-03 15:48:00,
2015-03-03 10:53:00,33.2,2.8,30.30,NE,46,0.0,0.0,27,0.00,,,0.00,VWS V15.00,2015-03-03 15:53:00,
2015-03-03 10:58:00,33.2,2.8,30.30,East,83,2.7,2.7,27,0.00,,,0.00,VWS V15.00,2015-03-03 15:58:00,
2015-03-03 11:03:00,33.5,3.2,30.30,South,182,3.1,3.1,27,0.00,,,0.00,VWS V15.00,2015-03-03 16:03:00,
2015-03-03 11:08:00,33.2,2.8,30.30,ESE,120,4.0,4.0,27,0.00,,,0.00,VWS V15.00,2015-03-03 16:08:00,
2015-03-03 11:13:00,33.5,3.2,30.30,East,94,0.0,5.4,27,0.00,,,0.00,VWS V15.00,2015-03-03 16:13:00,
2015-03-03 11:18:00,33.7,3.3,30.30,ESE,110,3.1,3.1,27,0.00,,,0.00,VWS V15.00,2015-03-03 16:18:00,
2015-03-03 11:23:00,34.3,3.8,30.30,SSE,152,4.0,4.0,27,0.00,,,0.00,VWS V15.00,2015-03-03 16:23:00,
2015-03-03 11:28:00,34.8,3.4,30.30,SSW,207,7.6,7.6,26,0.00,,,0.00,VWS V15.00,2015-03-03 16:28:00,
2015-03-03 11:34:00,35.0,3.6,30.30,ESE,115,4.0,4.0,26,0.00,,,0.00,VWS V15.00,2015-03-03 16:34:00,
2015-03-03 11:39:00,35.3,3.9,30.30,East,90,2.7,5.4,26,0.00,,,0.00,VWS V15.00,2015-03-03 16:39:00,
2015-03-03 11:44:00,35.7,4.2,30.30,WSW,239,3.1,3.1,26,0.00,,,0.00,VWS V15.00,2015-03-03 16:44:00,
2015-03-03 11:49:00,35.9,4.3,30.30,South,170,3.6,3.6,26,0.00,,,0.00,VWS V15.00,2015-03-03 16:49:00,
2015-03-03 11:54:00,36.4,4.8,30.30,South,185,0.0,0.0,26,0.00,,,0.00,VWS V15.00,2015-03-03 16:54:00,
2015-03-03 11:59:00,36.6,5.0,30.27,SE,126,3.1,3.1,26,0.00,,,0.00,VWS V15.00,2015-03-03 16:59:00,
2015-03-03 12:04:00,36.6,5.0,30.27,SW,217,4.9,8.1,26,0.00,,,0.00,VWS V15.00,2015-03-03 17:04:00,
2015-03-03 12:09:00,36.4,4.8,30.27,South,181,0.0,0.0,26,0.00,,,0.00,VWS V15.00,2015-03-03 17:09:00,
2015-03-03 12:14:00,35.9,4.3,30.27,South,169,3.6,3.6,26,0.00,,,0.00,VWS V15.00,2015-03-03 17:14:00,
2015-03-03 12:19:00,35.5,4.0,30.27,South,184,8.3,8.3,26,0.00,,,0.00,VWS V15.00,2015-03-03 17:19:00,
2015-03-03 12:24:00,35.0,3.6,30.27,SSE,160,2.7,3.1,26,0.00,,,0.00,VWS V15.00,2015-03-03 17:24:00,
2015-03-03 12:29:00,35.2,3.7,30.27,SSE,152,3.6,3.6,26,0.00,,,0.00,VWS V15.00,2015-03-03 17:29:00,
2015-03-03 12:34:00,35.3,3.9,30.27,SSW,196,3.6,3.6,26,0.00,,,0.00,VWS V15.00,2015-03-03 17:34:00,
2015-03-03 12:39:00,35.0,3.6,30.27,SW,221,0.0,0.0,26,0.00,,,0.00,VWS V15.00,2015-03-03 17:39:00,
2015-03-03 12:44:00,35.3,3.9,30.24,ESE,117,0.0,0.0,26,0.00,,,0.00,VWS V15.00,2015-03-03 17:44:00,
2015-03-03 12:49:00,35.2,3.7,30.24,South,179,3.6,3.6,26,0.00,,,0.00,VWS V15.00,2015-03-03 17:49:00,
2015-03-03 12:54:00,35.0,3.6,30.24,South,179,5.8,5.8,26,0.00,,,0.00,VWS V15.00,2015-03-03 17:54:00,
2015-03-03 12:59:00,35.2,3.7,30.24,SE,129,2.2,3.1,26,0.00,,,0.00,VWS V15.00,2015-03-03 17:59:00,
2015-03-03 13:04:00,35.0,3.6,30.24,South,176,6.3,6.3,26,0.00,,,0.00,VWS V15.00,2015-03-03 18:04:00,
2015-03-03 13:09:00,34.6,4.1,30.24,South,183,2.7,2.7,27,0.00,,,0.00,VWS V15.00,2015-03-03 18:09:00,
2015-03-03 13:14:00,34.8,3.4,30.24,SSW,196,3.6,3.6,26,0.00,,,0.00,VWS V15.00,2015-03-03 18:14:00,
2015-03-03 13:19:00,34.8,5.8,30.24,SE,139,3.1,3.1,29,0.00,,,0.00,VWS V15.00,2015-03-03 18:19:00,
2015-03-03 13:24:00,34.6,5.6,30.24,SSE,161,3.1,3.1,29,0.00,,,0.00,VWS V15.00,2015-03-03 18:24:00,
2015-03-03 13:29:00,34.4,5.5,30.24,SSE,148,5.4,5.4,29,0.00,,,0.00,VWS V15.00,2015-03-03 18:29:00,
2015-03-03 13:34:00,34.3,5.3,30.21,East,92,4.0,5.8,29,0.00,,,0.00,VWS V15.00,2015-03-03 18:34:00,
2015-03-03 13:40:00,34.1,5.2,30.21,South,190,4.0,5.4,29,0.00,,,0.00,VWS V15.00,2015-03-03 18:40:00,
2015-03-03 13:45:00,34.3,7.5,30.18,SSE,151,4.0,4.0,32,0.00,,,0.00,VWS V15.00,2015-03-03 18:45:00,
2015-03-03 13:50:00,34.4,7.6,30.18,ESE,115,3.1,4.9,32,0.00,,,0.00,VWS V15.00,2015-03-03 18:50:00,
2015-03-03 13:55:00,34.6,7.8,30.18,SSW,206,4.9,4.9,32,0.00,,,0.00,VWS V15.00,2015-03-03 18:55:00,